createdAt,value
2023-05-11T00:00:44.733Z,0.00
2023-05-11T00:01:44.714Z,0.00
2023-05-11T00:02:44.767Z,0.00
2023-05-11T00:03:44.790Z,0.00
2023-05-11T00:04:44.723Z,0.00
2023-05-11T00:05:44.742Z,0.00
2023-05-11T00:06:47.738Z,0.00
2023-05-11T00:07:44.620Z,0.00
2023-05-11T00:08:44.595Z,0.00
2023-05-11T00:09:44.612Z,0.00
2023-05-11T00:10:44.605Z,0.00
2023-05-11T00:11:44.596Z,0.00
2023-05-11T00:12:44.570Z,0.00
2023-05-11T00:13:44.573Z,0.00
2023-05-11T00:14:44.568Z,0.00
2023-05-11T00:16:44.557Z,0.00
2023-05-11T00:17:44.534Z,0.00
2023-05-11T00:18:44.565Z,0.00
2023-05-11T00:19:44.518Z,0.00
2023-05-11T00:20:44.482Z,0.00
2023-05-11T00:21:47.501Z,0.00
2023-05-11T00:22:45.037Z,0.00
2023-05-11T00:23:44.451Z,0.00
2023-05-11T00:24:44.441Z,0.00
2023-05-11T00:25:44.453Z,0.00
2023-05-11T00:26:44.450Z,0.00
2023-05-11T00:27:44.403Z,0.00
2023-05-11T00:28:44.422Z,0.00
2023-05-11T00:29:44.408Z,0.00
2023-05-11T00:30:44.371Z,0.00
2023-05-11T00:31:44.472Z,0.00
2023-05-11T00:32:44.408Z,0.00
2023-05-11T00:33:44.364Z,0.00
2023-05-11T00:34:44.355Z,0.00
2023-05-11T00:35:44.339Z,0.00
2023-05-11T00:36:47.378Z,0.00
2023-05-11T00:37:44.327Z,0.00
2023-05-11T00:38:44.322Z,0.00
2023-05-11T00:39:44.318Z,0.00
2023-05-11T00:40:44.269Z,0.00
2023-05-11T00:41:44.320Z,0.00
2023-05-11T00:42:44.252Z,0.00
2023-05-11T00:43:44.234Z,0.00
2023-05-11T00:44:44.236Z,0.00
2023-05-11T00:45:44.215Z,0.00
2023-05-11T00:46:44.301Z,0.00
2023-05-11T00:47:44.284Z,0.00
2023-05-11T00:48:44.189Z,0.00
2023-05-11T00:49:44.212Z,0.00
2023-05-11T00:50:44.193Z,0.00
2023-05-11T00:51:47.159Z,0.00
2023-05-11T00:52:44.160Z,0.00
2023-05-11T00:53:44.137Z,0.00
2023-05-11T00:54:44.153Z,0.00
2023-05-11T00:55:44.121Z,0.00
2023-05-11T00:56:44.145Z,0.00
2023-05-11T00:57:44.121Z,0.00
2023-05-11T00:58:44.266Z,0.00
2023-05-11T00:59:44.068Z,0.00
2023-05-11T01:00:44.100Z,0.00
2023-05-11T01:01:44.115Z,0.00
2023-05-11T01:02:44.135Z,0.00
2023-05-11T01:03:44.133Z,0.00
2023-05-11T01:04:44.046Z,0.00
2023-05-11T01:05:44.041Z,0.00
2023-05-11T01:06:47.016Z,0.00
2023-05-11T01:07:44.023Z,0.00
2023-05-11T01:08:44.025Z,0.00
2023-05-11T01:09:44.026Z,0.00
2023-05-11T01:10:43.993Z,0.00
2023-05-11T01:11:44.013Z,0.00
2023-05-11T01:12:43.945Z,0.00
2023-05-11T01:13:44.030Z,0.00
2023-05-11T01:14:43.999Z,0.00
2023-05-11T01:15:43.944Z,0.00
2023-05-11T01:16:43.993Z,0.00
2023-05-11T01:17:43.999Z,0.00
2023-05-11T01:18:43.993Z,0.00
2023-05-11T01:19:43.903Z,0.00
2023-05-11T01:20:43.899Z,0.00
2023-05-11T01:21:46.863Z,0.00
2023-05-11T01:22:43.860Z,0.00
2023-05-11T01:23:43.833Z,0.00
2023-05-11T01:24:43.861Z,0.00
2023-05-11T01:25:43.811Z,0.00
2023-05-11T01:26:43.804Z,0.00
2023-05-11T01:27:43.794Z,0.00
2023-05-11T01:28:43.844Z,0.00
2023-05-11T01:29:43.804Z,0.00
2023-05-11T01:30:43.806Z,0.00
2023-05-11T01:31:43.800Z,0.00
2023-05-11T01:32:43.813Z,0.00
2023-05-11T01:33:43.752Z,0.00
2023-05-11T01:34:43.749Z,0.00
2023-05-11T01:35:43.736Z,0.00
2023-05-11T01:36:46.722Z,0.00
2023-05-11T01:37:43.728Z,0.00
2023-05-11T01:38:43.678Z,0.00
2023-05-11T01:39:43.751Z,0.00
2023-05-11T01:40:43.662Z,0.00
2023-05-11T01:41:43.657Z,0.00
2023-05-11T01:42:43.677Z,0.00
2023-05-11T01:43:43.661Z,0.00
2023-05-11T01:44:43.663Z,0.00
2023-05-11T01:45:43.658Z,0.00
2023-05-11T01:46:43.594Z,0.00
2023-05-11T01:47:43.653Z,0.00
2023-05-11T01:48:43.614Z,0.00
2023-05-11T01:49:43.568Z,0.00
2023-05-11T01:50:43.559Z,0.00
2023-05-11T01:51:46.576Z,0.00
2023-05-11T01:52:43.568Z,0.00
2023-05-11T01:53:43.529Z,0.00
2023-05-11T01:54:43.541Z,0.00
2023-05-11T01:55:43.513Z,0.00
2023-05-11T01:56:43.504Z,0.00
2023-05-11T01:57:43.518Z,0.00
2023-05-11T01:58:43.515Z,0.00
2023-05-11T01:59:43.468Z,0.00
2023-05-11T02:00:43.485Z,0.00
2023-05-11T02:01:43.465Z,0.00
2023-05-11T02:02:43.535Z,0.00
2023-05-11T02:03:43.485Z,0.00
2023-05-11T02:04:43.438Z,0.00
2023-05-11T02:05:43.427Z,0.00
2023-05-11T02:06:46.425Z,0.00
2023-05-11T02:07:43.450Z,0.00
2023-05-11T02:08:43.398Z,0.00
2023-05-11T02:09:43.363Z,0.00
2023-05-11T02:10:43.378Z,0.00
2023-05-11T02:11:43.344Z,0.00
2023-05-11T02:12:43.366Z,0.00
2023-05-11T02:13:43.317Z,0.00
2023-05-11T02:14:43.324Z,0.00
2023-05-11T02:15:43.396Z,0.00
2023-05-11T02:16:43.425Z,0.00
2023-05-11T02:17:43.330Z,0.00
2023-05-11T02:18:43.335Z,0.00
2023-05-11T02:19:43.284Z,0.00
2023-05-11T02:20:43.271Z,0.00
2023-05-11T02:21:46.249Z,0.00
2023-05-11T02:23:43.262Z,0.00
2023-05-11T02:24:43.233Z,0.00
2023-05-11T02:25:43.229Z,0.00
2023-05-11T02:26:43.207Z,0.00
2023-05-11T02:27:43.201Z,0.00
2023-05-11T02:28:43.189Z,0.00
2023-05-11T02:29:43.163Z,0.00
2023-05-11T02:30:43.147Z,0.00
2023-05-11T02:31:43.222Z,0.00
2023-05-11T02:32:43.293Z,0.00
2023-05-11T02:33:43.133Z,0.00
2023-05-11T02:34:43.126Z,0.00
2023-05-11T02:35:43.138Z,0.00
2023-05-11T02:36:46.086Z,0.00
2023-05-11T02:37:43.152Z,0.00
2023-05-11T02:38:43.086Z,0.00
2023-05-11T02:39:43.082Z,0.00
2023-05-11T02:40:43.045Z,0.00
2023-05-11T02:41:43.056Z,0.00
2023-05-11T02:42:43.124Z,0.00
2023-05-11T02:43:43.052Z,0.00
2023-05-11T02:44:43.054Z,0.00
2023-05-11T02:45:43.021Z,0.00
2023-05-11T02:46:43.025Z,0.00
2023-05-11T02:47:43.070Z,0.00
2023-05-11T02:48:42.994Z,0.00
2023-05-11T02:49:42.985Z,0.00
2023-05-11T02:50:42.991Z,0.00
2023-05-11T02:51:45.931Z,0.00
2023-05-11T02:52:42.939Z,0.00
2023-05-11T02:53:42.956Z,0.00
2023-05-11T02:54:42.932Z,0.00
2023-05-11T02:55:42.919Z,0.00
2023-05-11T02:56:42.888Z,0.00
2023-05-11T02:57:42.906Z,0.00
2023-05-11T02:58:42.885Z,0.00
2023-05-11T02:59:42.850Z,0.00
2023-05-11T03:00:42.934Z,0.00
2023-05-11T03:01:42.934Z,0.00
2023-05-11T03:02:42.857Z,0.00
2023-05-11T03:03:42.864Z,0.00
2023-05-11T03:04:42.818Z,0.00
2023-05-11T03:05:42.813Z,0.00
2023-05-11T03:06:45.808Z,0.00
2023-05-11T03:07:42.805Z,0.00
2023-05-11T03:08:42.787Z,0.00
2023-05-11T03:09:42.950Z,0.00
2023-05-11T03:10:43.727Z,0.00
2023-05-11T03:11:42.838Z,0.00
2023-05-11T03:12:42.982Z,0.00
2023-05-11T03:13:42.802Z,0.00
2023-05-11T03:14:43.699Z,0.00
2023-05-11T03:15:42.830Z,0.00
2023-05-11T03:16:42.926Z,0.00
2023-05-11T03:17:42.870Z,0.00
2023-05-11T03:18:42.752Z,0.00
2023-05-11T03:19:42.617Z,0.00
2023-05-11T03:20:42.693Z,0.00
2023-05-11T03:21:45.657Z,0.00
2023-05-11T03:22:42.657Z,0.00
2023-05-11T03:23:42.601Z,0.00
2023-05-11T03:24:42.560Z,0.00
2023-05-11T03:25:42.527Z,0.00
2023-05-11T03:26:42.530Z,0.00
2023-05-11T03:27:42.540Z,0.00
2023-05-11T03:28:42.530Z,0.00
2023-05-11T03:29:42.563Z,0.00
2023-05-11T03:30:42.529Z,0.00
2023-05-11T03:31:42.509Z,0.00
2023-05-11T03:32:42.573Z,0.00
2023-05-11T03:33:42.479Z,0.00
2023-05-11T03:34:42.476Z,0.00
2023-05-11T03:35:42.459Z,0.00
2023-05-11T03:36:45.422Z,0.00
2023-05-11T03:37:42.434Z,0.00
2023-05-11T03:38:42.418Z,0.00
2023-05-11T03:39:42.434Z,0.00
2023-05-11T03:40:42.402Z,0.00
2023-05-11T03:41:42.396Z,0.00
2023-05-11T03:42:42.356Z,0.00
2023-05-11T03:43:42.373Z,0.00
2023-05-11T03:44:42.368Z,0.00
2023-05-11T03:45:42.362Z,0.00
2023-05-11T03:46:42.345Z,0.00
2023-05-11T03:47:42.354Z,0.00
2023-05-11T03:48:42.309Z,0.00
2023-05-11T03:49:42.408Z,0.00
2023-05-11T03:50:42.271Z,0.00
2023-05-11T03:51:45.275Z,0.00
2023-05-11T03:52:42.279Z,0.00
2023-05-11T03:53:42.264Z,0.00
2023-05-11T03:54:42.237Z,0.00
2023-05-11T03:55:42.261Z,5.62
2023-05-11T03:56:42.241Z,5.62
2023-05-11T03:57:42.278Z,5.62
2023-05-11T03:58:42.223Z,5.62
2023-05-11T03:59:42.201Z,5.62
2023-05-11T04:00:42.205Z,5.62
2023-05-11T04:01:42.220Z,5.62
2023-05-11T04:02:42.491Z,11.25
2023-05-11T04:03:42.350Z,11.25
2023-05-11T04:04:42.201Z,11.25
2023-05-11T04:05:42.165Z,11.25
2023-05-11T04:06:45.108Z,11.25
2023-05-11T04:07:42.137Z,11.25
2023-05-11T04:08:42.158Z,11.25
2023-05-11T04:09:42.083Z,11.25
2023-05-11T04:10:42.092Z,11.25
2023-05-11T04:11:42.123Z,16.88
2023-05-11T04:12:42.047Z,16.88
2023-05-11T04:13:42.036Z,22.50
2023-05-11T04:14:42.053Z,22.50
2023-05-11T04:15:42.047Z,28.12
2023-05-11T04:16:42.043Z,28.12
2023-05-11T04:17:42.005Z,28.12
2023-05-11T04:18:41.995Z,33.75
2023-05-11T04:19:41.966Z,33.75
2023-05-11T04:20:41.995Z,33.75
2023-05-11T04:21:44.980Z,33.75
2023-05-11T04:22:41.950Z,33.75
2023-05-11T04:23:41.937Z,39.38
2023-05-11T04:24:41.971Z,39.38
2023-05-11T04:25:41.950Z,39.38
2023-05-11T04:26:41.959Z,39.38
2023-05-11T04:27:41.906Z,39.38
2023-05-11T04:28:41.908Z,39.38
2023-05-11T04:29:41.895Z,39.38
2023-05-11T04:30:41.885Z,39.38
2023-05-11T04:31:41.898Z,39.38
2023-05-11T04:32:41.886Z,39.38
2023-05-11T04:33:41.849Z,39.38
2023-05-11T04:34:41.857Z,39.38
2023-05-11T04:35:41.820Z,45.00
2023-05-11T04:36:44.848Z,45.00
2023-05-11T04:37:41.823Z,45.00
2023-05-11T04:38:41.775Z,50.62
2023-05-11T04:39:41.796Z,50.62
2023-05-11T04:40:41.785Z,50.62
2023-05-11T04:41:41.759Z,50.62
2023-05-11T04:42:41.756Z,50.62
2023-05-11T04:43:41.724Z,50.62
2023-05-11T04:44:41.742Z,50.62
2023-05-11T04:45:41.705Z,56.25
2023-05-11T04:46:41.738Z,61.88
2023-05-11T04:47:41.721Z,67.50
2023-05-11T04:48:41.710Z,67.50
2023-05-11T04:49:41.669Z,73.12
2023-05-11T04:50:41.659Z,78.75
2023-05-11T04:51:44.699Z,78.75
2023-05-11T04:52:41.644Z,84.38
2023-05-11T04:53:42.432Z,84.38
2023-05-11T04:54:41.646Z,73.12
2023-05-11T04:55:41.599Z,67.50
2023-05-11T04:56:41.642Z,67.50
2023-05-11T04:57:41.595Z,67.50
2023-05-11T04:58:41.615Z,61.88
2023-05-11T04:59:41.622Z,61.88
2023-05-11T05:00:41.596Z,61.88
2023-05-11T05:01:41.696Z,61.88
2023-05-11T05:02:41.626Z,61.88
2023-05-11T05:03:41.557Z,73.12
2023-05-11T05:04:41.548Z,78.75
2023-05-11T05:05:41.535Z,90.00
2023-05-11T05:06:44.520Z,95.62
2023-05-11T05:07:41.493Z,101.25
2023-05-11T05:08:41.502Z,118.12
2023-05-11T05:09:44.493Z,129.38
2023-05-11T05:10:41.501Z,140.62
2023-05-11T05:11:41.594Z,157.50
2023-05-11T05:12:41.431Z,168.75
2023-05-11T05:13:41.460Z,174.38
2023-05-11T05:14:41.434Z,185.62
2023-05-11T05:15:41.465Z,196.88
2023-05-11T05:16:41.406Z,196.88
2023-05-11T05:17:41.436Z,196.88
2023-05-11T05:18:41.416Z,196.88
2023-05-11T05:19:41.403Z,196.88
2023-05-11T05:20:41.349Z,196.88
2023-05-11T05:21:44.362Z,191.25
2023-05-11T05:22:41.365Z,191.25
2023-05-11T05:23:41.400Z,185.62
2023-05-11T05:24:41.347Z,191.25
2023-05-11T05:26:41.294Z,202.50
2023-05-11T05:27:41.302Z,208.12
2023-05-11T05:28:41.289Z,213.75
2023-05-11T05:29:41.255Z,219.38
2023-05-11T05:30:41.289Z,225.00
2023-05-11T05:31:41.250Z,219.38
2023-05-11T05:32:41.282Z,213.75
2023-05-11T05:33:41.236Z,202.50
2023-05-11T05:34:41.232Z,191.25
2023-05-11T05:35:41.230Z,191.25
2023-05-11T05:36:44.193Z,191.25
2023-05-11T05:37:41.219Z,191.25
2023-05-11T05:38:41.196Z,185.62
2023-05-11T05:39:41.161Z,185.62
2023-05-11T05:40:41.163Z,174.38
2023-05-11T05:41:41.148Z,151.88
2023-05-11T05:42:41.120Z,129.38
2023-05-11T05:43:41.147Z,118.12
2023-05-11T05:44:41.110Z,101.25
2023-05-11T05:45:41.099Z,90.00
2023-05-11T05:46:41.166Z,84.38
2023-05-11T05:47:41.108Z,84.38
2023-05-11T05:48:41.100Z,90.00
2023-05-11T05:49:41.063Z,101.25
2023-05-11T05:50:41.175Z,118.12
2023-05-11T05:51:44.074Z,157.50
2023-05-11T05:52:41.052Z,185.62
2023-05-11T05:53:41.034Z,202.50
2023-05-11T05:54:41.030Z,219.38
2023-05-11T05:55:41.033Z,241.88
2023-05-11T05:56:40.989Z,264.38
2023-05-11T05:57:41.018Z,281.25
2023-05-11T05:58:40.955Z,286.88
2023-05-11T05:59:40.976Z,275.62
2023-05-11T06:00:40.966Z,253.12
2023-05-11T06:01:40.933Z,213.75
2023-05-11T06:02:40.995Z,185.62
2023-05-11T06:03:41.021Z,196.88
2023-05-11T06:04:40.964Z,236.25
2023-05-11T06:05:40.916Z,264.38
2023-05-11T06:06:43.873Z,270.00
2023-05-11T06:07:40.865Z,286.88
2023-05-11T06:08:41.907Z,326.25
2023-05-11T06:09:40.844Z,348.75
2023-05-11T06:10:40.873Z,371.25
2023-05-11T06:11:40.848Z,376.88
2023-05-11T06:12:40.840Z,382.50
2023-05-11T06:13:40.848Z,382.50
2023-05-11T06:14:40.799Z,365.62
2023-05-11T06:15:43.359Z,331.88
2023-05-11T06:16:40.897Z,315.00
2023-05-11T06:17:40.782Z,354.38
2023-05-11T06:18:40.798Z,371.25
2023-05-11T06:19:40.752Z,354.38
2023-05-11T06:20:40.761Z,337.50
2023-05-11T06:21:43.734Z,303.75
2023-05-11T06:22:40.761Z,281.25
2023-05-11T06:23:40.700Z,281.25
2023-05-11T06:24:40.704Z,298.12
2023-05-11T06:25:40.739Z,315.00
2023-05-11T06:26:40.840Z,326.25
2023-05-11T06:27:40.967Z,331.88
2023-05-11T06:29:41.547Z,348.75
2023-05-11T06:30:42.233Z,326.25
2023-05-11T06:31:41.772Z,275.62
2023-05-11T06:32:40.793Z,247.50
2023-05-11T06:33:40.824Z,258.75
2023-05-11T06:34:40.629Z,270.00
2023-05-11T06:35:40.613Z,298.12
2023-05-11T06:36:43.598Z,270.00
2023-05-11T06:37:41.209Z,264.38
2023-05-11T06:38:40.581Z,270.00
2023-05-11T06:39:40.582Z,247.50
2023-05-11T06:40:40.553Z,208.12
2023-05-11T06:41:40.554Z,213.75
2023-05-11T06:42:40.538Z,196.88
2023-05-11T06:43:40.526Z,185.62
2023-05-11T06:44:40.531Z,236.25
2023-05-11T06:45:40.512Z,303.75
2023-05-11T06:46:40.611Z,360.00
2023-05-11T06:47:40.529Z,371.25
2023-05-11T06:48:40.482Z,388.12
2023-05-11T06:49:40.461Z,410.62
2023-05-11T06:50:40.431Z,410.62
2023-05-11T06:51:43.544Z,382.50
2023-05-11T06:52:40.431Z,354.38
2023-05-11T06:53:40.396Z,331.88
2023-05-11T06:54:40.431Z,303.75
2023-05-11T06:55:40.408Z,286.88
2023-05-11T06:56:40.395Z,281.25
2023-05-11T06:58:40.401Z,286.88
2023-05-11T07:00:40.390Z,281.25
2023-05-11T07:01:40.418Z,303.75
2023-05-11T07:02:40.392Z,343.12
2023-05-11T07:03:40.300Z,388.12
2023-05-11T07:04:40.335Z,421.88
2023-05-11T07:05:40.288Z,455.62
2023-05-11T07:06:43.275Z,466.88
2023-05-11T07:07:40.306Z,472.50
2023-05-11T07:08:40.274Z,495.00
2023-05-11T07:09:42.007Z,523.12
2023-05-11T07:10:40.242Z,534.38
2023-05-11T07:11:40.292Z,517.50
2023-05-11T07:12:40.230Z,495.00
2023-05-11T07:13:40.215Z,455.62
2023-05-11T07:14:40.230Z,427.50
2023-05-11T07:15:40.199Z,438.75
2023-05-11T07:16:40.205Z,444.38
2023-05-11T07:17:40.262Z,455.62
2023-05-11T07:18:40.208Z,495.00
2023-05-11T07:19:40.137Z,540.00
2023-05-11T07:21:43.107Z,618.75
2023-05-11T07:22:40.114Z,618.75
2023-05-11T07:23:40.094Z,596.25
2023-05-11T07:24:40.074Z,573.75
2023-05-11T07:25:40.080Z,579.38
2023-05-11T07:26:41.917Z,630.00
2023-05-11T07:28:40.091Z,675.00
2023-05-11T07:29:40.025Z,669.38
2023-05-11T07:30:40.046Z,669.38
2023-05-11T07:31:40.098Z,686.25
2023-05-11T07:32:40.055Z,720.00
2023-05-11T07:33:40.036Z,742.50
2023-05-11T07:34:40.008Z,765.00
2023-05-11T07:36:43.008Z,742.50
2023-05-11T07:37:39.957Z,748.12
2023-05-11T07:38:39.960Z,753.75
2023-05-11T07:39:39.987Z,759.38
2023-05-11T07:40:39.959Z,776.25
2023-05-11T07:41:39.903Z,826.88
2023-05-11T07:43:39.945Z,838.12
2023-05-11T07:44:39.913Z,826.88
2023-05-11T07:46:40.025Z,798.75
2023-05-11T07:47:39.917Z,821.25
2023-05-11T07:48:39.865Z,849.38
2023-05-11T07:49:43.509Z,866.25
2023-05-11T07:50:39.842Z,871.88
2023-05-11T07:51:42.839Z,883.12
2023-05-11T07:52:39.881Z,894.38
2023-05-11T07:53:39.790Z,939.38
2023-05-11T07:54:39.799Z,978.75
2023-05-11T07:55:39.842Z,1029.38
2023-05-11T07:56:39.776Z,1085.62
2023-05-11T07:58:39.782Z,1153.12
2023-05-11T08:00:39.735Z,1186.88
2023-05-11T08:01:39.781Z,1203.75
2023-05-11T08:03:39.695Z,1215.00
2023-05-11T08:04:39.685Z,1203.75
2023-05-11T08:05:39.709Z,1175.62
2023-05-11T08:06:42.722Z,1147.50
2023-05-11T08:08:39.833Z,1119.38
2023-05-11T08:09:39.662Z,1102.50
2023-05-11T08:10:39.674Z,1091.25
2023-05-11T08:11:39.630Z,1091.25
2023-05-11T08:12:39.634Z,1096.88
2023-05-11T08:13:39.592Z,1119.38
2023-05-11T08:14:39.582Z,1102.50
2023-05-11T08:16:39.596Z,1108.12
2023-05-11T08:17:39.625Z,1102.50
2023-05-11T08:18:39.661Z,1096.88
2023-05-11T08:19:39.514Z,1108.12
2023-05-11T08:21:42.514Z,1198.12
2023-05-11T08:22:39.525Z,1243.12
2023-05-11T08:23:39.691Z,1282.50
2023-05-11T08:24:39.496Z,1316.25
2023-05-11T08:26:39.482Z,1383.75
2023-05-11T08:27:39.459Z,1400.62
2023-05-11T08:29:39.423Z,1423.12
2023-05-11T08:30:39.431Z,1400.62
2023-05-11T08:31:39.436Z,1383.75
2023-05-11T08:32:54.501Z,1310.62
2023-05-11T08:33:40.417Z,1293.75
2023-05-11T08:34:39.463Z,1237.50
2023-05-11T08:35:39.353Z,1186.88
2023-05-11T08:36:42.344Z,1153.12
2023-05-11T08:37:39.367Z,1113.75
2023-05-11T08:38:39.337Z,1046.25
2023-05-11T08:39:47.417Z,973.12
2023-05-11T08:40:40.377Z,928.12
2023-05-11T08:41:39.288Z,883.12
2023-05-11T08:42:39.281Z,843.75
2023-05-11T08:43:39.275Z,855.00
2023-05-11T08:44:39.277Z,922.50
2023-05-11T08:45:40.946Z,1023.75
2023-05-11T08:46:39.236Z,1141.88
2023-05-11T08:47:39.283Z,1282.50
2023-05-11T08:48:39.201Z,1400.62
2023-05-11T08:49:39.222Z,1462.50
2023-05-11T08:50:39.269Z,1445.62
2023-05-11T08:51:42.203Z,1383.75
2023-05-11T08:52:39.183Z,1378.12
2023-05-11T08:53:39.156Z,1310.62
2023-05-11T08:54:39.168Z,1181.25
2023-05-11T08:55:39.193Z,1108.12
2023-05-11T08:56:39.251Z,1091.25
2023-05-11T08:57:39.139Z,1080.00
2023-05-11T08:59:39.117Z,1136.25
2023-05-11T09:00:39.113Z,1170.00
2023-05-11T09:01:39.122Z,1192.50
2023-05-11T09:02:39.074Z,1220.62
2023-05-11T09:03:39.054Z,1265.62
2023-05-11T09:04:39.035Z,1338.75
2023-05-11T09:05:39.086Z,1428.75
2023-05-11T09:06:42.144Z,1524.38
2023-05-11T09:07:39.013Z,1608.75
2023-05-11T09:08:39.024Z,1805.62
2023-05-11T09:09:38.977Z,1946.25
2023-05-11T09:10:38.963Z,2227.50
2023-05-11T09:12:38.968Z,2261.25
2023-05-11T09:13:38.967Z,2272.50
2023-05-11T09:14:38.958Z,2548.12
2023-05-11T09:15:39.048Z,2272.50
2023-05-11T09:16:38.967Z,2300.62
2023-05-11T09:17:39.081Z,2452.50
2023-05-11T09:18:39.042Z,2250.00
2023-05-11T09:19:38.880Z,2120.62
2023-05-11T09:20:38.862Z,1991.25
2023-05-11T09:21:41.860Z,1918.12
2023-05-11T09:22:38.846Z,1935.00
2023-05-11T09:23:38.858Z,1890.00
2023-05-11T09:24:38.830Z,1845.00
2023-05-11T09:25:38.809Z,1845.00
2023-05-11T09:26:38.824Z,1721.25
2023-05-11T09:27:41.056Z,1783.12
2023-05-11T09:29:39.766Z,1839.38
2023-05-11T09:30:39.777Z,1591.88
2023-05-11T09:32:38.841Z,1490.62
2023-05-11T09:33:38.734Z,1468.12
2023-05-11T09:34:43.331Z,1434.38
2023-05-11T09:35:38.700Z,1400.62
2023-05-11T09:36:41.723Z,1366.88
2023-05-11T09:37:38.724Z,1361.25
2023-05-11T09:38:38.752Z,1361.25
2023-05-11T09:40:39.656Z,1389.38
2023-05-11T09:41:38.673Z,1400.62
2023-05-11T09:42:38.650Z,1406.25
2023-05-11T09:43:38.663Z,1434.38
2023-05-11T09:45:38.611Z,1434.38
2023-05-11T09:46:38.683Z,1400.62
2023-05-11T09:47:38.778Z,1417.50
2023-05-11T09:48:38.597Z,1501.88
2023-05-11T09:49:38.614Z,1485.00
2023-05-11T09:50:38.594Z,1355.62
2023-05-11T09:51:41.559Z,1338.75
2023-05-11T09:52:38.560Z,1423.12
2023-05-11T09:53:38.682Z,1428.75
2023-05-11T09:55:38.508Z,1541.25
2023-05-11T09:56:38.514Z,1558.12
2023-05-11T09:57:38.492Z,1541.25
2023-05-11T09:59:38.467Z,1518.75
2023-05-11T10:00:39.370Z,1490.62
2023-05-11T10:01:38.497Z,1462.50
2023-05-11T10:02:38.477Z,1451.25
2023-05-11T10:03:38.599Z,1451.25
2023-05-11T10:05:38.385Z,1395.00
2023-05-11T10:06:41.389Z,1395.00
2023-05-11T10:07:38.385Z,1400.62
2023-05-11T10:08:38.375Z,1378.12
2023-05-11T10:09:38.377Z,1344.38
2023-05-11T10:10:38.369Z,1293.75
2023-05-11T10:12:38.593Z,1220.62
2023-05-11T10:13:38.338Z,1209.38
2023-05-11T10:14:38.379Z,1231.88
2023-05-11T10:15:38.279Z,1248.75
2023-05-11T10:16:38.382Z,1220.62
2023-05-11T10:17:38.366Z,1147.50
2023-05-11T10:18:38.306Z,1023.75
2023-05-11T10:19:38.270Z,922.50
2023-05-11T10:20:38.262Z,860.62
2023-05-11T10:21:41.210Z,798.75
2023-05-11T10:22:38.284Z,731.25
2023-05-11T10:23:38.234Z,663.75
2023-05-11T10:25:38.217Z,528.75
2023-05-11T10:26:38.203Z,461.25
2023-05-11T10:28:38.162Z,343.12
2023-05-11T10:29:38.193Z,298.12
2023-05-11T10:30:38.138Z,275.62
2023-05-11T10:31:38.212Z,253.12
2023-05-11T10:32:38.127Z,219.38
2023-05-11T10:33:38.081Z,191.25
2023-05-11T10:35:38.078Z,168.75
2023-05-11T10:36:41.057Z,168.75
2023-05-11T10:38:38.055Z,163.12
2023-05-11T10:39:38.060Z,140.62
2023-05-11T10:41:38.036Z,106.88
2023-05-11T10:43:37.993Z,101.25
2023-05-11T10:45:37.995Z,101.25
2023-05-11T10:46:38.012Z,112.50
2023-05-11T10:47:38.002Z,112.50
2023-05-11T10:48:37.941Z,112.50
2023-05-11T10:49:37.928Z,106.88
2023-05-11T10:50:37.934Z,101.25
2023-05-11T10:51:40.974Z,101.25
2023-05-11T10:53:37.885Z,106.88
2023-05-11T10:55:37.935Z,112.50
2023-05-11T10:56:37.840Z,123.75
2023-05-11T10:57:37.869Z,140.62
2023-05-11T10:58:37.847Z,157.50
2023-05-11T10:59:37.834Z,163.12
2023-05-11T11:00:37.869Z,163.12
2023-05-11T11:01:38.196Z,174.38
2023-05-11T11:03:37.773Z,191.25
2023-05-11T11:04:37.784Z,208.12
2023-05-11T11:06:40.808Z,247.50
2023-05-11T11:08:37.742Z,270.00
2023-05-11T11:09:37.704Z,281.25
2023-05-11T11:10:37.744Z,286.88
2023-05-11T11:11:37.708Z,286.88
2023-05-11T11:13:37.656Z,303.75
2023-05-11T11:14:37.678Z,303.75
2023-05-11T11:15:37.676Z,303.75
2023-05-11T11:16:37.698Z,303.75
2023-05-11T11:17:37.666Z,309.38
2023-05-11T11:18:37.708Z,309.38
2023-05-11T11:19:37.601Z,315.00
2023-05-11T11:20:37.656Z,315.00
2023-05-11T11:21:40.616Z,320.62
2023-05-11T11:22:37.608Z,326.25
2023-05-11T11:23:37.571Z,326.25
2023-05-11T11:24:37.566Z,326.25
2023-05-11T11:26:37.529Z,326.25
2023-05-11T11:27:37.519Z,331.88
2023-05-11T11:28:38.432Z,326.25
2023-05-11T11:29:37.517Z,326.25
2023-05-11T11:30:37.518Z,320.62
2023-05-11T11:31:37.666Z,320.62
2023-05-11T11:32:37.492Z,320.62
2023-05-11T11:33:37.461Z,320.62
2023-05-11T11:34:37.487Z,320.62
2023-05-11T11:35:37.456Z,320.62
2023-05-11T11:36:40.556Z,320.62
2023-05-11T11:37:37.431Z,320.62
2023-05-11T11:38:37.433Z,326.25
2023-05-11T11:39:37.415Z,326.25
2023-05-11T11:40:47.180Z,331.88
2023-05-11T11:41:37.393Z,331.88
2023-05-11T11:42:37.348Z,337.50
2023-05-11T11:43:37.910Z,337.50
2023-05-11T11:44:37.364Z,343.12
2023-05-11T11:45:37.446Z,348.75
2023-05-11T11:46:37.416Z,348.75
2023-05-11T11:47:37.382Z,348.75
2023-05-11T11:48:37.344Z,348.75
2023-05-11T11:49:37.280Z,354.38
2023-05-11T11:50:37.270Z,365.62
2023-05-11T11:51:40.597Z,376.88
2023-05-11T11:52:37.282Z,382.50
2023-05-11T11:53:37.512Z,388.12
2023-05-11T11:54:37.259Z,399.38
2023-05-11T11:55:37.245Z,405.00
2023-05-11T11:56:37.231Z,410.62
2023-05-11T11:57:37.242Z,416.25
2023-05-11T11:58:37.189Z,421.88
2023-05-11T11:59:37.184Z,427.50
2023-05-11T12:00:37.196Z,438.75
2023-05-11T12:01:37.208Z,450.00
2023-05-11T12:02:37.351Z,466.88
2023-05-11T12:03:37.646Z,478.12
2023-05-11T12:04:37.177Z,500.62
2023-05-11T12:05:37.111Z,523.12
2023-05-11T12:06:40.125Z,551.25
2023-05-11T12:07:37.130Z,568.12
2023-05-11T12:08:37.103Z,596.25
2023-05-11T12:09:37.146Z,618.75
2023-05-11T12:10:37.158Z,635.62
2023-05-11T12:11:37.045Z,641.25
2023-05-11T12:12:37.145Z,652.50
2023-05-11T12:13:37.057Z,669.38
2023-05-11T12:14:37.017Z,675.00
2023-05-11T12:15:37.036Z,697.50
2023-05-11T12:16:37.063Z,714.38
2023-05-11T12:17:37.053Z,731.25
2023-05-11T12:18:37.019Z,742.50
2023-05-11T12:19:37.007Z,753.75
2023-05-11T12:20:36.985Z,765.00
2023-05-11T12:21:39.985Z,776.25
2023-05-11T12:22:36.982Z,781.88
2023-05-11T12:23:36.949Z,781.88
2023-05-11T12:24:36.975Z,770.62
2023-05-11T12:25:36.930Z,748.12
2023-05-11T12:26:36.905Z,725.62
2023-05-11T12:27:36.951Z,708.75
2023-05-11T12:28:36.884Z,697.50
2023-05-11T12:29:36.905Z,697.50
2023-05-11T12:30:36.869Z,703.12
2023-05-11T12:31:36.884Z,714.38
2023-05-11T12:32:37.007Z,725.62
2023-05-11T12:33:36.863Z,742.50
2023-05-11T12:34:36.844Z,765.00
2023-05-11T12:35:36.832Z,787.50
2023-05-11T12:36:39.806Z,810.00
2023-05-11T12:37:36.833Z,821.25
2023-05-11T12:38:36.799Z,838.12
2023-05-11T12:39:36.785Z,855.00
2023-05-11T12:40:36.779Z,866.25
2023-05-11T12:41:36.737Z,883.12
2023-05-11T12:42:36.821Z,900.00
2023-05-11T12:43:36.748Z,911.25
2023-05-11T12:44:36.750Z,933.75
2023-05-11T12:45:36.828Z,950.62
2023-05-11T12:46:36.835Z,967.50
2023-05-11T12:47:36.762Z,990.00
2023-05-11T12:48:36.689Z,1001.25
2023-05-11T12:49:36.836Z,1023.75
2023-05-11T12:50:36.681Z,1035.00
2023-05-11T12:51:39.646Z,1051.88
2023-05-11T12:52:36.706Z,1057.50
2023-05-11T12:53:36.648Z,1068.75
2023-05-11T12:54:36.618Z,1074.38
2023-05-11T12:55:36.624Z,1080.00
2023-05-11T12:56:37.579Z,1096.88
2023-05-11T12:57:36.588Z,1113.75
2023-05-11T12:58:36.560Z,1141.88
2023-05-11T12:59:36.581Z,1153.12
2023-05-11T13:00:36.576Z,1175.62
2023-05-11T13:01:36.614Z,1209.38
2023-05-11T13:02:36.614Z,1237.50
2023-05-11T13:03:36.599Z,1254.38
2023-05-11T13:04:36.533Z,1271.25
2023-05-11T13:05:36.489Z,1282.50
2023-05-11T13:06:39.519Z,1305.00
2023-05-11T13:07:36.512Z,1310.62
2023-05-11T13:08:36.492Z,1338.75
2023-05-11T13:10:36.433Z,1383.75
2023-05-11T13:11:36.453Z,1411.88
2023-05-11T13:12:36.441Z,1434.38
2023-05-11T13:13:36.474Z,1468.12
2023-05-11T13:14:36.533Z,1496.25
2023-05-11T13:15:36.417Z,1518.75
2023-05-11T13:16:36.650Z,1546.88
2023-05-11T13:17:36.433Z,1580.62
2023-05-11T13:18:36.408Z,1608.75
2023-05-11T13:20:36.346Z,1620.00
2023-05-11T13:21:39.395Z,1642.50
2023-05-11T13:22:36.336Z,1681.88
2023-05-11T13:23:36.311Z,1726.88
2023-05-11T13:24:36.292Z,1850.62
2023-05-11T13:25:36.411Z,2058.75